Weather observations for the past three days for
Hanksville
Metric (Imperial)
Date Time (mdt) Wind (kph) Vis. (km) Weather Sky Cond. Temperature (ºC) Relative Humidity Wind Chill (°C) Heat Index (°C) Pressure Precipitation (cm)
Air Dwpt 6 hour altimeter (cm) sea level (mb) 1 hr 3 hr 6 hr
Max. Min.
05 07:15 Calm 16.09 Fair CLR 11 -3 38% 75.77 0.0
05 06:55 SW 9 16.09 Fair CLR 11 -5 32% 75.74 0.0
05 06:35 W 13 16.09 Fair CLR 11 -5 32% 75.72 0.0
05 06:15 W 17 16.09 Fair CLR 11 -4 35% 75.72 0.0
05 05:55 W 13 16.09 Fair CLR 10 -3 40% 8 75.72 0.0
05 05:35 W 9 16.09 Fair CLR 11 -2 41% 75.72 0.0
05 05:15 W 7 16.09 Fair CLR 11 -1 44% 75.72 0.0
05 04:55 W 17 16.09 Fair CLR 12 -2 38% 75.72 0.0
05 04:15 W 19 16.09 Fair CLR 12 -1 41% 75.72 0.0
05 03:55 SW 15 16.09 Fair CLR 12 -3 35% 75.72 0.0
05 03:35 W 17 16.09 Fair CLR 13 -3 33% 75.72 0.0
05 03:15 W 19 16.09 Fair CLR 13 -3 33% 75.72 0.0
05 02:55 W 19 G 28 16.09 Fair CLR 13 -3 33% 75.69 0.0
05 02:35 W 19 16.09 Fair CLR 14 -3 31% 75.72 0.0
05 02:15 W 22 G 28 16.09 Fair CLR 15 -3 29% 75.69 0.0
05 01:55 W 17 16.09 Fair CLR 13 -3 33% 75.67 0.0
05 01:35 W 17 16.09 Fair CLR 13 -3 33% 75.69 0.0
05 01:15 W 13 16.09 Fair CLR 14 -3 31% 75.69 0.0
05 00:55 W 15 16.09 Fair CLR 14 -3 31% 75.69 0.0
05 00:35 W 15 16.09 Fair CLR 15 -3 29% 75.69 0.0
05 00:15 W 11 16.09 Partly Cloudy SCT120 15 -2 31% 75.67 0.0
04 23:55 W 13 16.09 Partly Cloudy SCT120 15 -2 31% 75.69 0.0
04 23:35 W 15 16.09 Partly Cloudy SCT120 16 -2 29% 75.67 0.0
04 23:15 W 13 16.09 Partly Cloudy SCT120 16 -1 31% 75.67 0.0
04 22:55 W 11 16.09 Overcast OVC110 16 -1 31% 75.67 0.0
04 22:35 W 11 16.09 Mostly Cloudy BKN110 16 -1 31% 75.67 0.0
04 22:15 W 13 16.09 Overcast OVC110 17 -1 30% 75.67 0.0
04 21:55 W 13 16.09 Overcast OVC110 18 -2 26% 75.64 0.0
04 21:35 SW 22 G 31 16.09 Mostly Cloudy BKN110 19 -2 24% 75.62 0.0
04 21:15 SW 17 16.09 Partly Cloudy SCT110 19 -2 24% 75.59 0.0
04 20:55 SW 17 16.09 Mostly Cloudy BKN110 19 -2 24% 75.59 0.0
04 20:35 SW 15 G 31 16.09 Partly Cloudy SCT110 20 -2 23% 75.59 0.0
04 20:15 SW 24 G 33 16.09 Partly Cloudy SCT120 20 -2 23% 75.57 0.0
04 19:55 SW 26 G 35 16.09 Partly Cloudy SCT120 20 -2 23% 75.57 0.0
04 19:35 SW 17 16.09 Partly Cloudy SCT120 20 -1 24% 75.57 0.0
04 19:15 SW 20 16.09 Fair CLR 21 -1 23% 75.57 0.0
04 18:55 S 6 16.09 Fair CLR 21 4 33% 75.57 0.0
04 18:35 E 6 16.09 Partly Cloudy SCT110 21 4 33% 75.59 0.0
04 18:15 E 6 16.09 Fair CLR 21 3 31% 75.59 0.0
04 17:55 E 9 16.09 Fair CLR 21 2 29% 75.59 0.0
04 17:35 E 11 16.09 Partly Cloudy SCT120 21 3 31% 75.62 0.0
04 17:15 SE 11 16.09 Mostly Cloudy BKN120 21 3 31% 75.62 0.0
04 16:55 E 13 16.09 Fair CLR 21 4 33% 75.62 0.0
04 16:35 E 13 16.09 Fair CLR 21 4 33% 75.67 0.0
04 16:15 E 11 16.09 Fair CLR 21 3 31% 75.67 0.0
04 15:55 SE 13 16.09 Partly Cloudy SCT095 21 5 35% 75.69 0.0
04 15:35 SE 15 16.09 Partly Cloudy SCT095 21 5 35% 75.72 0.0
04 15:15 SE 9 16.09 Fair CLR 21 2 29% 75.72 0.0
04 14:55 E 19 G 26 16.09 Fair CLR 20 7 43% 75.72 0.0
04 14:35 E 17 16.09 Partly Cloudy SCT029 SCT039 SCT045 19 6 43% 75.74 0.0
04 14:15 SE 13 G 33 11.27 Mostly Cloudy SCT016 SCT025 BKN036 17 6 49% 75.77 0.0
04 13:55 S 26 G 54 16.09 Partly Cloudy SCT014 SCT020 SCT025 20 6 40% 75.79 0.0
04 13:35 S 35 G 43 16.09 Partly Cloudy and Breezy SCT110 22 2 27% 75.77 0.0
04 13:15 SE 28 G 43 16.09 Partly Cloudy SCT100 23 1 23% 75.77 0.0
04 12:55 S 30 G 44 16.09 Mostly Cloudy BKN080 23 1 23% 75.77 0.0
04 12:35 S 9 G 15 16.09 Mostly Cloudy SCT080 BKN090 BKN120 22 1 25% 75.79 0.0
04 12:15 S 17 G 28 16.09 Partly Cloudy SCT090 SCT120 22 0 23% 75.82 0.0
04 11:55 S 20 G 28 16.09 Partly Cloudy SCT090 23 0 22% 75.84 0.0
04 11:35 S 13 16.09 Partly Cloudy SCT090 22 0 23% 75.87 0.0
04 11:15 S 13 16.09 Partly Cloudy SCT080 22 0 23% 75.87 0.0
04 10:55 S 20 16.09 Partly Cloudy SCT080 22 0 23% 75.9 0.0
04 10:35 Calm 16.09 Mostly Cloudy BKN110 21 0 25% 75.9 0.0
04 10:15 W 11 16.09 Mostly Cloudy BKN110 21 1 27% 75.92 0.0
04 09:55 W 11 16.09 Mostly Cloudy BKN110 20 1 28% 75.92 0.0
04 09:35 NW 7 16.09 Partly Cloudy SCT110 19 1 30% 75.95 0.0
04 09:15 NW 9 16.09 Partly Cloudy SCT110 18 1 32% 75.97 0.0
04 08:55 NW 7 16.09 Partly Cloudy SCT120 17 1 34% 75.97 0.0
04 08:35 N 9 16.09 Fair CLR 16 1 36% 75.97 0.0
04 08:15 NW 7 16.09 Partly Cloudy SCT090 16 2 39% 75.97 0.0
04 07:55 Calm 16.09 Partly Cloudy SCT100 15 2 42% 75.97 0.0
04 07:35 NE 6 16.09 Partly Cloudy SCT090 14 2 44% 76 0.0
04 07:15 N 7 16.09 Partly Cloudy SCT100 SCT110 13 2 47% 75.97 0.0
04 06:55 S 6 16.09 Mostly Cloudy BKN100 12 1 47% 75.97 0.0
04 06:35 SE 6 16.09 Mostly Cloudy SCT095 BKN120 12 1 47% 75.97 0.0
04 06:15 NE 9 16.09 Mostly Cloudy BKN110 12 1 47% 75.95 0.0
04 05:55 Calm 16.09 Overcast OVC110 13 1 44% 75.95 0.0
04 05:35 Calm 16.09 Overcast OVC110 14 1 41% 75.97 0.0
04 05:15 W 13 16.09 Mostly Cloudy BKN110 13 1 44% 75.97 0.0
04 04:55 W 11 16.09 Partly Cloudy SCT110 13 1 44% 75.97 0.0
04 04:35 NW 7 16.09 Fair CLR 14 1 41% 75.95 0.0
04 04:15 W 11 16.09 Partly Cloudy SCT120 14 1 41% 75.95 0.0
04 03:55 SW 19 16.09 Mostly Cloudy BKN120 15 1 39% 75.95 0.0
04 03:35 SW 17 16.09 Partly Cloudy SCT120 15 1 39% 75.95 0.0
04 03:15 SW 11 16.09 Fair CLR 16 1 36% 75.95 0.0
04 02:55 SW 15 16.09 Mostly Cloudy BKN110 16 2 39% 75.97 0.0
04 02:35 SW 13 16.09 Mostly Cloudy BKN120 16 2 39% 75.97 0.0
04 02:15 SW 11 16.09 Partly Cloudy SCT110 16 1 36% 75.95 0.0
04 01:55 SW 13 16.09 Mostly Cloudy BKN120 16 1 36% 75.97 0.0
04 01:35 SW 13 16.09 Mostly Cloudy BKN120 17 1 34% 75.97 0.0
04 01:15 SW 13 16.09 Partly Cloudy SCT120 17 1 34% 76 0.0
04 00:55 S 11 16.09 Partly Cloudy SCT090 SCT120 17 1 34% 75.97 0.0
04 00:35 SW 17 G 35 16.09 Partly Cloudy SCT080 SCT110 17 1 34% 76 0.0
04 00:15 SW 24 16.09 Partly Cloudy SCT085 SCT110 18 1 32% 76.02 0.0
03 23:55 SW 19 G 33 16.09 Mostly Cloudy BKN090 BKN110 18 1 32% 76.02 0.0
03 23:35 SW 22 G 46 16.09 Overcast OVC090 18 1 32% 76.05 0.0
03 23:15 SW 30 G 46 16.09 Overcast OVC090 18 1 32% 76 0.0
03 22:55 SW 24 G 37 16.09 Overcast OVC100 19 0 28% 76 0.0
03 22:35 W 31 G 46 16.09 Overcast OVC110 20 0 26% 75.97 0.0
03 22:15 W 44 G 56 16.09 Overcast and Windy SCT085 OVC110 20 0 26% 75.97 0.0
03 21:55 SW 48 G 61 16.09 Overcast and Windy SCT075 BKN090 OVC110 20 0 26% 75.95 0.0
03 21:35 SW 57 G 65 16.09 Overcast and Windy OVC110 22 -2 20% 75.9 0.0
03 21:15 SW 17 G 30 16.09 Overcast OVC110 23 -4 16% 75.82 0.0
03 20:55 W 24 G 33 16.09 Overcast OVC110 23 -5 15% 75.79 0.0
03 20:35 SW 24 G 41 16.09 Mostly Cloudy SCT090 BKN120 24 -5 14% 24 75.79 0.0
03 20:15 W 13 16.09 Fair CLR 24 -6 13% 24 75.77 0.0
03 19:55 W 9 16.09 Partly Cloudy SCT110 25 -7 11% 25 75.74 0.0
03 19:35 NW 9 0.00 Partly Cloudy SCT120 25 -7 11% 25 75.74 0.0
03 19:15 Calm 16.09 Fair CLR 25 -7 11% 25 75.74 0.0
03 18:55 Calm 16.09 Fair CLR 26 -7 11% 25 75.74 0.0
03 18:35 Calm 16.09 Fair CLR 26 -6 12% 25 75.77 0.0
03 18:15 SE 11 16.09 Fair CLR 26 -6 12% 25 75.79 0.0
03 17:55 SE 11 16.09 Fair CLR 26 -6 12% 25 75.79 0.0
03 17:35 SE 19 16.09 Fair CLR 26 -6 12% 25 75.82 0.0
03 17:15 SE 9 16.09 Fair CLR 25 -6 12% 25 75.82 0.0
03 16:55 S 20 G 30 16.09 Fair CLR 27 -6 11% 26 75.87 0.0
03 16:35 SW 9 16.09 Fair CLR 26 -6 12% 25 75.87 0.0
03 16:15 SW 15 16.09 Fair CLR 28 -6 10% 27 75.9 0.0
03 15:55 SW 9 G 26 16.09 Fair CLR 27 -6 11% 26 75.92 0.0
03 15:35 SE 9 16.09 Fair CLR 27 -6 11% 26 75.95 0.0
03 15:15 Calm 16.09 Fair CLR 27 -6 11% 26 76 0.0
03 14:55 S 13 G 26 16.09 Fair CLR 27 -6 11% 26 76 0.0
03 14:35 S 11 G 30 16.09 Fair CLR 26 -6 12% 25 76.05 0.0
03 14:15 N 6 16.09 Fair CLR 26 -5 12% 25 76.07 0.0
03 13:55 SE 17 G 35 16.09 Fair CLR 26 -5 12% 25 76.1 0.0
03 13:35 S 11 16.09 Fair CLR 26 -5 12% 25 76.12 0.0
03 13:15 E 7 16.09 Fair CLR 26 -5 12% 25 76.17 0.0
03 12:55 SE 11 16.09 Fair CLR 25 -5 13% 25 76.2 0.0
03 12:35 Calm 16.09 Fair CLR 24 -6 13% 24 76.23 0.0
03 12:15 E 7 16.09 Fair CLR 23 -6 14% 76.28 0.0
03 11:55 Calm 16.09 Fair CLR 23 -6 14% 76.3 0.0
03 11:35 Calm 16.09 Fair CLR 22 -6 15% 76.33 0.0
03 11:15 Calm 16.09 Fair CLR 21 -6 16% 76.35 0.0
03 10:55 Calm 16.09 Fair CLR 20 -6 17% 76.38 0.0
03 10:35 SE 7 16.09 Fair CLR 19 -7 17% 76.38 0.0
03 10:15 Calm 16.09 Fair CLR 18 -7 18% 76.38 0.0
03 09:55 Calm 16.09 Fair CLR 17 -7 19% 76.38 0.0
03 09:35 Calm 16.09 Fair CLR 16 -6 22% 76.4 0.0
03 09:15 Calm 16.09 Fair CLR 14 -6 25% 76.4 0.0
03 08:55 Calm 16.09 Fair CLR 13 -6 26% 76.43 0.0
03 08:35 Calm 16.09 Fair CLR 12 -6 28% 76.43 0.0
03 08:15 Calm 16.09 Fair CLR 11 -6 30% 76.43 0.0
03 07:55 Calm 16.09 Fair CLR 10 -6 32% 76.43 0.0
03 07:35 Calm 16.09 Fair CLR 8 -6 37% 76.43 0.0
03 07:15 Calm 16.09 Fair CLR 6 -7 39% 76.4 0.0
03 06:55 Calm 16.09 Fair CLR 7 -7 37% 76.4 0.0
03 06:35 Calm 16.09 Fair CLR 5 -8 39% 76.38 0.0
03 06:15 Calm 16.09 Fair CLR 7 -8 34% 76.38 0.0
03 05:55 Calm 16.09 Fair CLR 7 -7 37% 76.35 0.0
03 05:35 Calm 16.09 Fair CLR 8 -7 34% 76.35 0.0
03 05:15 NW 9 16.09 Fair CLR 7 -8 34% 5 76.35 0.0
03 04:55 Calm 16.09 Fair CLR 7 -7 37% 76.38 0.0
03 04:35 Calm 16.09 Fair CLR 7 -8 34% 76.38 0.0
03 04:15 Calm 16.09 Fair CLR 8 -7 34% 76.38 0.0
03 03:55 Calm 16.09 Fair CLR 7 -8 34% 76.38 0.0
03 03:35 Calm 16.09 Fair CLR 8 -8 32% 76.38 0.0
03 03:15 Calm 16.09 Fair CLR 8 -8 32% 76.38 0.0
03 02:55 NW 7 0.00 Fair CLR 8 -8 32% 7 76.38 0.0
03 02:35 NW 7 16.09 Fair CLR 8 -8 32% 7 76.38 0.0
03 02:15 N 6 16.09 Fair CLR 8 -8 32% 76.38 0.0
03 01:55 N 6 16.09 Fair CLR 8 -8 32% 76.4 0.0
03 01:35 Calm 16.09 Fair CLR 8 -8 32% 76.4 0.0
03 01:15 NW 6 16.09 Fair CLR 10 -8 28% 76.4 0.0
03 00:55 Calm 16.09 Fair CLR 12 -7 26% 76.4 0.0
03 00:35 Calm 16.09 Fair CLR 11 -7 28% 76.4 0.0
03 00:15 Calm 16.09 Fair CLR 10 -8 28% 76.38 0.0
02 23:55 E 7 16.09 Fair CLR 12 -7 26% 76.38 0.0
02 23:35 E 6 16.09 Fair CLR 12 -8 24% 76.38 0.0
02 23:15 Calm 16.09 Fair CLR 13 -7 24% 76.38 0.0
02 22:55 Calm 16.09 Fair CLR 13 -8 23% 76.38 0.0
02 22:35 E 6 16.09 Fair CLR 13 -8 23% 76.38 0.0
02 22:15 E 6 16.09 Fair CLR 15 -8 20% 76.38 0.0
02 21:55 E 11 16.09 Fair CLR 16 -8 19% 76.33 0.0
02 21:35 Calm 16.09 Fair CLR 16 -8 19% 76.33 0.0
02 21:15 S 7 16.09 Fair CLR 19 -8 15% 76.33 0.0
02 20:55 S 7 16.09 Fair CLR 20 -7 16% 76.3 0.0
02 20:35 S 11 16.09 Fair CLR 20 -7 16% 76.3 0.0
02 20:15 S 15 16.09 Fair CLR 21 -7 15% 76.28 0.0
02 19:55 S 17 16.09 Fair CLR 21 -7 15% 76.28 0.0
02 19:35 S 13 16.09 Fair CLR 22 -6 15% 76.28 0.0
02 19:15 SE 13 16.09 Fair CLR 22 -6 15% 76.28 0.0
02 18:55 S 17 16.09 Fair CLR 22 -6 15% 76.28 0.0
02 18:35 SE 13 16.09 Fair CLR 23 -6 14% 76.28 0.0
02 18:15 S 13 G 26 16.09 Fair CLR 23 -6 14% 76.3 0.0
02 17:55 E 11 16.09 Fair CLR 23 -6 14% 0 0.0
02 17:35 SE 6 16.09 Fair CLR 23 -7 13% 76.33 0.0
02 17:15 Calm 16.09 Fair CLR 23 -7 13% 76.33 0.0
02 16:55 E 6 16.09 Fair CLR 24 -7 12% 24 76.35 0.0
02 16:35 E 9 16.09 Fair CLR 24 -8 11% 24 76.38 0.0
02 16:15 W 11 16.09 Fair CLR 24 -8 11% 24 76.4 0.0
02 15:55 SE 13 16.09 Fair CLR 24 -8 11% 24 76.43 0.0
02 15:35 Calm 16.09 Fair CLR 23 -9 11% 76.48 0.0
02 15:15 SE 9 16.09 Fair CLR 23 -9 11% 76.5 0.0
02 14:55 SE 6 16.09 Fair CLR 23 -10 10% 76.53 0.0
02 14:35 E 6 16.09 Fair CLR 23 -10 10% 76.53 0.0
02 14:15 W 9 16.09 Fair CLR 23 -10 10% 76.58 0.0
02 13:55 W 9 16.09 Fair CLR 22 -11 10% 76.58 0.0
02 13:35 S 7 16.09 Fair CLR 22 -10 11% 76.61 0.0
02 13:15 SW 6 16.09 Fair CLR 21 -10 12% 76.63 0.0
02 12:55 S 9 16.09 Fair CLR 21 -10 12% 76.66 0.0
02 12:35 Calm 16.09 Fair CLR 20 -10 12% 76.68 0.0
02 12:15 E 9 16.09 Fair CLR 21 -10 12% 76.71 0.0
02 11:55 Calm 16.09 Fair CLR 20 -10 12% 76.71 0.0
02 11:35 S 7 16.09 Fair CLR 18 -11 13% 76.73 0.0
02 11:15 SW 7 16.09 Fair CLR 18 -11 13% 76.73 0.0
02 10:55 Calm 16.09 Fair CLR 17 -11 14% 76.73 0.0
02 10:35 Calm 16.09 Fair CLR 16 -12 13% 76.76 0.0
02 10:15 Calm 16.09 Fair CLR 15 -12 14% 76.76 0.0
02 09:55 Calm 16.09 Fair CLR 15 -12 14% 76.76 0.0
02 09:35 Calm 16.09 Fair CLR 13 -12 16% 76.76 0.0
02 09:15 Calm 16.09 Fair CLR 12 -13 16% 76.76 0.0
02 08:55 Calm 16.09 Fair CLR 11 -12 19% 76.76 0.0
02 08:35 Calm 16.09 Fair CLR 10 -11 22% 76.76 0.0
02 08:15 Calm 16.09 Fair CLR 8 -11 25% 76.76 0.0
02 07:55 Calm 16.09 Fair CLR 7 -11 27% 76.73 0.0
02 07:35 Calm 16.09 Fair CLR 5 -11 31% 76.73 0.0
Date Time (mdt) Wind (kph) Vis. (km) Weather Sky Cond. Air Dwpt Max. Min. Relative Humidity Wind Chill (°C) Heat Index (°C) altimeter (cm) sea level (mb) 1 hr 3 hr 6 hr
6 hour
Temperature (ºC) Pressure Precipitation (cm)